Portada
METAR-TAF:

METAR-TAF

Aeroports :

Pohnpei, Micronèsia

latitud: 06-59N, longitud: 158-12E, altitud: 2 m

Observació

L'informe es va fer fa 45 minuts, a les 02:53 UTC
Vent 8 kt del Est/Nord-Est
Temperatura 30°C
Humitat 79%
Pressió 1011 hPa
Visibilitat: 24.1 km
Cel ennuvolat a una alçada de 1800 ft, Cumulus congestus.
Cel ennuvolat a una alçada de 30000 ft

METAR: PTPN 180253Z 06008KT 15SM BKN018TCU BKN300 30/26 A2985 RMK TCU SE-S

Hora: 14:38 (03:38 UTC)

Pronòstic

L'informe es va fer fa 1 hora i 43 minuts, a les 01:55 UTC
Pronòstic vàlid del 18 a les 02 UTC al 18 a les 24 UTC
Vent 6 kt amb direcció variable
Visibilitat: 10 km
Núvols disperses a una alçada de 1800 ft
Cel ennuvolat a una alçada de 13000 ft
xàfecs en les proximitats
Temporalment
l' 18 a les 02 UTC al 18 a les 06 UTC
Cel ennuvolat a una alçada de 1800 ft
xàfecs de pluja

TAF: PTPN 180155Z 1802/1824 VRB06KT P6SM VCSH SCT018 BKN130 TEMPO 1802/1806 -SHRA BKN018

Observacions i pronòstics meteorològics de més de 4000 aeroports (METAR i TAF).

Les estacions disponibles són els punts grocs i vermells al mapa.

Posi el ratolí al punt desitjat per veure el nom de l'estació.

Feu clic per veure les observacions i els pronòstics meteorològics.

Per canviar el mapa: feu clic els botons verds amb una creu de color negre per apropar; al botó verd amb un guió per allunyar la imatge; o en les fletxes verdes per a mapes adjacents.


METAR-TAF: